Skip Navigation LinksHome page > Weather > Current weather Skip Navigation Links

Current Weather

Dorval Intl. Apt., Montréal, P.Q.

For information only: do not use for flight planning or navigation.
Latest weather
Observation time Wednesday, October 27, 2021 2:00 AM EDT
Local time Wednesday, October 27, 2021 2:36 AM EDT
Flight conditions Visual Meteorological Conditions
Winds
Wind direction North-Northeast (30°)
Wind speed 20 mph
Wind gusting to 28 mph
Visibility 15 mi.
Sky condition
Ceiling unlimited
Cloud layer few clouds 24,000 ft.
Temperature 48°F
Dewpoint 37°F
Altimeter 29.86 in.Hg
Derived measurements
Relative humidity 66%
Wind chill 41°F
Density altitude -417 ft.
Sea-level pressure 29.87 in.Hg
METAR CYUL 270600Z 03017G24KT 15SM FEW240 09/03 A2986 RMK CI1 CI TR SLP116

Settings

Location code

InnerDrive.Weather 4.0.6770.0 Release CLR 4.0.30319.42000
Copyright ©2018 Inner Drive Technology. All rights reserved. Portions Copyright ©1986-2018 David Braverman.

Find weather

Site navigation


Skip Navigation Links

Place info

Page info

PayPal - The safer, easier way to pay online!

Return home.

Copyright ©2021 Inner Drive Technology. Purveyors of fine, hand-crafted computer software. Page printed 2021-10-27T06:36:13 UTC.